createdAt,value
2022-08-10T00:00:39.389Z,22.10
2022-08-10T00:03:07.224Z,22.00
2022-08-10T00:05:43.792Z,22.00
2022-08-10T00:08:22.472Z,22.00
2022-08-10T00:10:51.888Z,22.00
2022-08-10T00:18:54.281Z,21.90
2022-08-10T00:21:21.622Z,21.90
2022-08-10T00:23:54.277Z,21.90
2022-08-10T00:26:22.076Z,21.90
2022-08-10T00:28:49.248Z,21.90
2022-08-10T00:31:16.389Z,21.90
2022-08-10T00:33:43.371Z,21.90
2022-08-10T00:44:01.078Z,21.70
2022-08-10T00:46:28.496Z,21.50
2022-08-10T00:49:00.650Z,21.50
2022-08-10T00:51:43.239Z,21.40
2022-08-10T00:54:23.918Z,21.40
2022-08-10T00:57:16.914Z,21.30
2022-08-10T00:59:58.117Z,21.30
2022-08-10T01:10:06.296Z,21.30
2022-08-10T01:12:41.846Z,21.30
2022-08-10T01:15:15.846Z,21.30
2022-08-10T01:17:51.652Z,21.10
2022-08-10T01:20:30.558Z,21.10
2022-08-10T01:23:37.736Z,21.10
2022-08-10T01:26:37.226Z,21.10
2022-08-10T01:34:24.683Z,21.10
2022-08-10T01:36:56.491Z,21.00
2022-08-10T01:39:27.054Z,21.00
2022-08-10T01:41:58.259Z,20.90
2022-08-10T01:44:31.014Z,20.90
2022-08-10T01:47:20.342Z,20.80
2022-08-10T01:49:56.790Z,20.70
2022-08-10T01:55:38.085Z,20.70
2022-08-10T01:58:07.975Z,20.70
2022-08-10T02:00:39.303Z,20.60
2022-08-10T02:03:09.266Z,20.70
2022-08-10T02:05:39.849Z,20.70
2022-08-10T02:08:12.249Z,20.60
2022-08-10T02:10:43.545Z,20.50
2022-08-10T02:21:10.469Z,20.40
2022-08-10T02:23:41.220Z,20.30
2022-08-10T02:26:09.805Z,20.30
2022-08-10T02:28:39.455Z,20.30
2022-08-10T02:31:11.914Z,20.20
2022-08-10T02:33:56.459Z,20.30
2022-08-10T02:36:34.895Z,20.20
2022-08-10T02:45:24.427Z,20.20
2022-08-10T02:47:09.383Z,20.20
2022-08-10T02:49:41.975Z,20.10
2022-08-10T02:52:16.717Z,20.10
2022-08-10T02:54:51.379Z,20.20
2022-08-10T02:57:23.054Z,20.20
2022-08-10T02:59:54.777Z,19.90
2022-08-10T03:08:16.583Z,19.70
2022-08-10T03:10:45.944Z,19.80
2022-08-10T03:13:15.191Z,19.70
2022-08-10T03:15:43.535Z,19.70
2022-08-10T03:18:13.836Z,19.80
2022-08-10T03:20:44.421Z,19.80
2022-08-10T03:23:18.663Z,19.70
2022-08-10T03:33:10.700Z,19.50
2022-08-10T03:35:38.335Z,19.60
2022-08-10T03:38:05.835Z,19.60
2022-08-10T03:40:46.372Z,19.80
2022-08-10T03:43:19.132Z,19.80
2022-08-10T03:45:56.045Z,19.70
2022-08-10T03:48:45.168Z,19.60
2022-08-10T03:56:28.038Z,19.60
2022-08-10T03:58:58.735Z,19.40
2022-08-10T04:02:46.226Z,19.30
2022-08-10T04:04:19.301Z,19.30
2022-08-10T04:06:51.420Z,19.50
2022-08-10T04:09:22.760Z,19.60
2022-08-10T04:11:51.613Z,19.50
2022-08-10T04:19:26.845Z,19.60
2022-08-10T04:22:03.439Z,19.70
2022-08-10T04:24:34.738Z,19.60
2022-08-10T04:27:03.216Z,19.60
2022-08-10T04:29:31.425Z,19.50
2022-08-10T04:32:00.229Z,19.60
2022-08-10T04:34:32.191Z,19.60
2022-08-10T04:43:54.740Z,19.60
2022-08-10T04:46:55.517Z,19.40
2022-08-10T04:49:55.591Z,19.40
2022-08-10T04:51:58.814Z,19.30
2022-08-10T04:54:29.937Z,19.30
2022-08-10T04:56:57.344Z,19.40
2022-08-10T04:59:26.135Z,19.30
2022-08-10T05:06:59.096Z,19.10
2022-08-10T05:09:27.732Z,19.10
2022-08-10T05:11:55.715Z,19.00
2022-08-10T05:14:23.386Z,19.10
2022-08-10T05:16:51.229Z,19.20
2022-08-10T05:20:02.332Z,19.00
2022-08-10T05:22:08.609Z,19.00
2022-08-10T05:27:26.285Z,19.10
2022-08-10T05:30:02.636Z,19.10
2022-08-10T05:32:32.193Z,19.10
2022-08-10T05:35:00.016Z,19.10
2022-08-10T05:38:11.752Z,19.20
2022-08-10T05:40:17.560Z,19.20
2022-08-10T05:42:46.069Z,19.20
2022-08-10T05:48:55.363Z,19.20
2022-08-10T05:50:41.134Z,19.30
2022-08-10T05:53:59.260Z,19.40
2022-08-10T05:55:58.239Z,19.50
2022-08-10T05:58:26.585Z,19.50
2022-08-10T06:00:58.202Z,19.50
2022-08-10T06:03:34.864Z,19.40
2022-08-10T06:09:17.143Z,19.30
2022-08-10T06:12:25.987Z,19.60
2022-08-10T06:14:59.730Z,19.60
2022-08-10T06:17:29.302Z,19.60
2022-08-10T06:19:58.486Z,19.70
2022-08-10T06:22:27.885Z,19.70
2022-08-10T06:25:27.337Z,19.80
2022-08-10T06:32:56.210Z,19.70
2022-08-10T06:35:26.545Z,19.90
2022-08-10T06:37:56.215Z,20.00
2022-08-10T06:40:28.129Z,20.00
2022-08-10T06:42:59.028Z,20.00
2022-08-10T06:45:32.320Z,20.00
2022-08-10T06:48:07.444Z,20.10
2022-08-10T06:53:21.489Z,20.30
2022-08-10T06:55:56.868Z,20.40
2022-08-10T06:58:29.257Z,20.40
2022-08-10T07:00:58.003Z,20.40
2022-08-10T07:03:33.329Z,20.50
2022-08-10T07:06:01.833Z,20.50
2022-08-10T07:08:36.319Z,20.60
2022-08-10T07:16:13.906Z,20.60
2022-08-10T07:18:45.009Z,20.80
2022-08-10T07:21:14.705Z,20.70
2022-08-10T07:23:57.126Z,21.00
2022-08-10T07:26:30.014Z,21.00
2022-08-10T07:28:59.055Z,21.40
2022-08-10T07:31:49.291Z,21.70
2022-08-10T07:37:28.014Z,21.90
2022-08-10T07:40:02.852Z,22.00
2022-08-10T07:42:45.892Z,22.30
2022-08-10T07:45:40.619Z,22.50
2022-08-10T07:48:15.218Z,22.70
2022-08-10T07:50:45.805Z,22.80
2022-08-10T07:59:56.720Z,23.40
2022-08-10T08:02:29.775Z,23.60
2022-08-10T08:05:07.750Z,23.90
2022-08-10T08:07:37.425Z,24.20
2022-08-10T08:10:07.555Z,24.50
2022-08-10T08:12:37.218Z,24.80
2022-08-10T08:17:57.444Z,25.20
2022-08-10T08:20:29.260Z,25.60
2022-08-10T08:24:05.949Z,25.90
2022-08-10T08:25:48.824Z,26.10
2022-08-10T08:28:18.024Z,26.70
2022-08-10T08:30:49.039Z,26.80
2022-08-10T08:33:41.337Z,27.10
2022-08-10T08:38:50.017Z,27.40
2022-08-10T08:41:42.680Z,27.90
2022-08-10T08:44:23.929Z,28.00
2022-08-10T08:48:04.798Z,28.40
2022-08-10T08:50:12.275Z,28.60
2022-08-10T08:52:53.655Z,28.90
2022-08-10T09:04:21.044Z,29.70
2022-08-10T09:08:01.229Z,30.10
2022-08-10T09:10:22.365Z,30.40
2022-08-10T09:12:55.090Z,30.80
2022-08-10T09:15:40.322Z,31.10
2022-08-10T09:18:16.774Z,31.30
2022-08-10T09:21:05.443Z,31.30
2022-08-10T09:28:40.340Z,31.50
2022-08-10T09:31:21.891Z,31.70
2022-08-10T09:36:27.004Z,31.90
2022-08-10T09:37:00.581Z,31.90
2022-08-10T09:40:56.014Z,32.40
2022-08-10T09:43:02.004Z,32.40
2022-08-10T09:50:21.330Z,32.20
2022-08-10T09:53:06.186Z,32.30
2022-08-10T09:56:17.716Z,32.20
2022-08-10T09:58:46.266Z,32.40
2022-08-10T10:02:02.538Z,32.80
2022-08-10T10:04:24.815Z,32.80
2022-08-10T10:06:57.649Z,33.00
2022-08-10T10:15:01.060Z,33.00
2022-08-10T10:17:43.785Z,33.00
2022-08-10T10:20:21.726Z,33.20
2022-08-10T10:22:59.711Z,33.10
2022-08-10T10:25:49.878Z,33.30
2022-08-10T10:29:19.720Z,33.40
2022-08-10T10:34:31.065Z,33.50
2022-08-10T10:37:01.016Z,33.70
2022-08-10T10:39:32.287Z,34.10
2022-08-10T10:42:35.052Z,33.70
2022-08-10T10:45:15.007Z,34.10
2022-08-10T10:47:56.068Z,34.60
2022-08-10T10:50:32.074Z,34.70
2022-08-10T10:58:20.087Z,34.60
2022-08-10T11:01:04.107Z,34.40
2022-08-10T11:03:42.954Z,34.40
2022-08-10T11:06:21.205Z,34.80
2022-08-10T11:08:53.954Z,35.00
2022-08-10T11:12:00.225Z,35.20
2022-08-10T11:22:02.348Z,35.60
2022-08-10T11:24:48.419Z,35.80
2022-08-10T11:27:32.461Z,35.30
2022-08-10T11:30:06.214Z,35.00
2022-08-10T11:32:44.633Z,35.30
2022-08-10T11:35:21.195Z,35.80
2022-08-10T11:38:28.657Z,35.70
2022-08-10T11:46:07.362Z,36.40
2022-08-10T11:48:54.617Z,36.20
2022-08-10T11:51:31.173Z,35.90
2022-08-10T11:54:05.789Z,35.70
2022-08-10T11:56:45.315Z,34.70
2022-08-10T11:59:31.349Z,34.50
2022-08-10T12:02:01.476Z,34.70
2022-08-10T12:10:11.732Z,35.80
2022-08-10T12:12:24.335Z,35.90
2022-08-10T12:14:57.494Z,35.60
2022-08-10T12:17:31.174Z,35.20
2022-08-10T12:20:05.181Z,35.20
2022-08-10T12:22:39.653Z,35.20
2022-08-10T12:25:54.942Z,35.40
2022-08-10T12:33:14.769Z,35.50
2022-08-10T12:36:14.952Z,35.70
2022-08-10T12:38:42.175Z,35.80
2022-08-10T12:41:17.926Z,35.50
2022-08-10T12:44:10.346Z,35.70
2022-08-10T12:46:43.896Z,35.50
2022-08-10T12:49:19.963Z,35.40
2022-08-10T12:57:00.703Z,35.60
2022-08-10T12:59:30.978Z,35.50
2022-08-10T13:02:06.951Z,35.40
2022-08-10T13:04:42.104Z,35.60
2022-08-10T13:08:24.258Z,35.60
2022-08-10T13:10:03.639Z,35.70
2022-08-10T13:12:40.289Z,35.80
2022-08-10T13:23:23.549Z,35.00
2022-08-10T13:25:52.630Z,34.70
2022-08-10T13:28:35.318Z,34.80
2022-08-10T13:31:08.811Z,34.50
2022-08-10T13:34:39.245Z,34.50
2022-08-10T13:36:37.779Z,34.30
2022-08-10T13:39:08.291Z,34.30
2022-08-10T13:44:27.644Z,34.30
2022-08-10T13:46:56.814Z,33.80
2022-08-10T13:49:24.886Z,33.50
2022-08-10T13:51:58.039Z,33.50
2022-08-10T13:54:36.316Z,33.20
2022-08-10T13:57:08.500Z,33.20
2022-08-10T14:00:34.984Z,33.10
2022-08-10T14:07:33.334Z,32.90
2022-08-10T14:10:06.790Z,33.10
2022-08-10T14:12:37.504Z,33.00
2022-08-10T14:15:09.095Z,32.80
2022-08-10T14:17:44.151Z,32.70
2022-08-10T14:20:17.960Z,32.60
2022-08-10T14:22:49.876Z,32.70
2022-08-10T14:28:37.011Z,32.70
2022-08-10T14:31:09.366Z,32.60
2022-08-10T14:33:39.897Z,32.40
2022-08-10T14:36:22.770Z,32.40
2022-08-10T14:38:54.578Z,32.30
2022-08-10T14:42:03.817Z,32.30
2022-08-10T14:52:09.052Z,31.00
2022-08-10T14:54:38.090Z,31.10
2022-08-10T14:57:11.494Z,31.20
2022-08-10T15:00:24.260Z,31.40
2022-08-10T15:02:53.191Z,31.30
2022-08-10T15:05:35.913Z,31.30
2022-08-10T15:08:10.555Z,31.30
2022-08-10T15:10:50.928Z,31.30
2022-08-10T15:18:26.663Z,31.10
2022-08-10T15:20:59.278Z,31.20
2022-08-10T15:23:32.953Z,31.20
2022-08-10T15:26:11.053Z,31.20
2022-08-10T15:29:23.634Z,31.30
2022-08-10T15:31:34.755Z,31.20
2022-08-10T15:34:28.895Z,31.30
2022-08-10T15:42:22.374Z,31.40
2022-08-10T15:44:53.189Z,31.30
2022-08-10T15:47:25.638Z,31.30
2022-08-10T15:49:58.416Z,31.40
2022-08-10T15:52:40.163Z,31.50
2022-08-10T15:55:44.247Z,31.40
2022-08-10T15:58:20.495Z,31.10
2022-08-10T16:06:21.965Z,31.00
2022-08-10T16:08:57.285Z,30.70
2022-08-10T16:11:44.174Z,30.70
2022-08-10T16:14:16.897Z,30.60
2022-08-10T16:16:51.456Z,30.30
2022-08-10T16:19:23.949Z,30.40
2022-08-10T16:22:34.253Z,30.40
2022-08-10T16:33:05.551Z,30.20
2022-08-10T16:35:36.805Z,30.10
2022-08-10T16:38:07.189Z,30.20
2022-08-10T16:40:35.884Z,30.10
2022-08-10T16:43:08.339Z,30.10
2022-08-10T16:45:40.907Z,30.10
2022-08-10T16:48:10.288Z,30.20
2022-08-10T16:53:37.339Z,30.10
2022-08-10T16:56:07.739Z,30.00
2022-08-10T16:58:38.325Z,29.70
2022-08-10T17:01:10.977Z,29.50
2022-08-10T17:04:05.727Z,29.40
2022-08-10T17:06:34.182Z,29.50
2022-08-10T17:09:05.826Z,29.40
2022-08-10T17:14:24.382Z,29.40
2022-08-10T17:16:54.870Z,29.30
2022-08-10T17:19:24.277Z,29.20
2022-08-10T17:21:56.335Z,29.30
2022-08-10T17:24:27.995Z,29.10
2022-08-10T17:27:01.419Z,29.30
2022-08-10T17:30:03.954Z,29.20
2022-08-10T17:40:18.913Z,29.10
2022-08-10T17:43:08.674Z,28.60
2022-08-10T17:45:48.683Z,28.40
2022-08-10T17:48:18.740Z,28.30
2022-08-10T17:50:51.612Z,28.40
2022-08-10T17:53:22.974Z,28.40
2022-08-10T17:55:58.215Z,28.40
2022-08-10T18:03:36.533Z,28.20
2022-08-10T18:06:06.624Z,28.20
2022-08-10T18:08:41.495Z,28.20
2022-08-10T18:11:13.395Z,28.20
2022-08-10T18:13:56.146Z,28.30
2022-08-10T18:16:31.439Z,28.10
2022-08-10T18:19:09.654Z,27.90
2022-08-10T18:27:46.570Z,27.80
2022-08-10T18:30:18.142Z,27.90
2022-08-10T18:32:50.789Z,27.80
2022-08-10T18:35:20.392Z,27.50
2022-08-10T18:37:51.243Z,27.30
2022-08-10T18:40:20.187Z,27.50
2022-08-10T18:42:51.650Z,27.20
2022-08-10T18:45:25.935Z,27.10
2022-08-10T18:53:03.388Z,26.90
2022-08-10T18:55:46.260Z,26.80
2022-08-10T18:58:50.544Z,27.00
2022-08-10T19:01:44.819Z,26.90
2022-08-10T19:04:27.869Z,26.60
2022-08-10T19:07:17.850Z,26.70
2022-08-10T19:18:14.583Z,26.50
2022-08-10T19:20:51.890Z,26.40
2022-08-10T19:23:39.657Z,26.30
2022-08-10T19:26:43.683Z,26.30
2022-08-10T19:30:05.104Z,26.30
2022-08-10T19:32:28.957Z,26.20
2022-08-10T19:40:45.866Z,26.20
2022-08-10T19:43:30.753Z,26.00
2022-08-10T19:46:15.997Z,26.10
2022-08-10T19:48:56.217Z,26.10
2022-08-10T19:51:27.692Z,26.10
2022-08-10T19:54:05.904Z,26.00
2022-08-10T20:00:17.360Z,25.90
2022-08-10T20:02:44.783Z,25.90
2022-08-10T20:05:16.979Z,25.90
2022-08-10T20:07:57.382Z,25.80
2022-08-10T20:10:33.057Z,25.90
2022-08-10T20:13:08.352Z,25.80
2022-08-10T20:15:46.058Z,25.80
2022-08-10T20:22:47.595Z,25.60
2022-08-10T20:25:20.884Z,25.60
2022-08-10T20:28:05.310Z,25.40
2022-08-10T20:30:35.923Z,25.30
2022-08-10T20:33:10.864Z,25.30
2022-08-10T20:35:49.312Z,25.30
2022-08-10T20:41:31.787Z,25.20
2022-08-10T20:44:31.265Z,25.20
2022-08-10T20:47:06.034Z,25.00
2022-08-10T20:49:43.216Z,24.90
2022-08-10T20:52:12.692Z,25.00
2022-08-10T20:54:48.095Z,25.00
2022-08-10T21:00:13.659Z,25.10
2022-08-10T21:03:07.535Z,25.00
2022-08-10T21:05:48.659Z,25.00
2022-08-10T21:08:29.731Z,24.90
2022-08-10T21:11:08.689Z,24.80
2022-08-10T21:14:01.572Z,24.70
2022-08-10T21:17:01.861Z,24.60
2022-08-10T21:25:01.385Z,24.70
2022-08-10T21:28:00.793Z,24.50
2022-08-10T21:30:51.108Z,24.50
2022-08-10T21:33:33.586Z,24.50
2022-08-10T21:36:11.492Z,24.60
2022-08-10T21:38:51.697Z,24.50
2022-08-10T21:42:02.191Z,24.40
2022-08-10T21:50:27.994Z,24.20
2022-08-10T21:53:21.157Z,24.20
2022-08-10T21:56:32.902Z,24.20
2022-08-10T21:59:22.989Z,24.10
2022-08-10T22:02:14.045Z,24.10
2022-08-10T22:05:00.679Z,24.10
2022-08-10T22:16:15.079Z,24.10
2022-08-10T22:19:04.060Z,23.90
2022-08-10T22:22:02.015Z,23.80
2022-08-10T22:25:16.746Z,23.80
2022-08-10T22:28:06.978Z,23.80
2022-08-10T22:31:30.041Z,23.70
2022-08-10T22:40:11.701Z,23.70
2022-08-10T22:42:59.065Z,23.70
2022-08-10T22:45:57.191Z,23.70
2022-08-10T22:48:43.098Z,23.60
2022-08-10T22:51:16.060Z,23.60
2022-08-10T22:54:06.172Z,23.60
2022-08-10T22:56:56.574Z,23.60
2022-08-10T23:04:44.801Z,23.60
2022-08-10T23:07:20.667Z,23.50
2022-08-10T23:09:57.669Z,23.40
2022-08-10T23:12:31.002Z,23.40
2022-08-10T23:15:18.532Z,23.40
2022-08-10T23:18:11.541Z,23.40
2022-08-10T23:20:42.162Z,23.40
2022-08-10T23:25:57.070Z,23.30
2022-08-10T23:28:38.769Z,23.30
2022-08-10T23:31:16.655Z,23.20
2022-08-10T23:33:46.734Z,23.30
2022-08-10T23:36:33.800Z,23.10
2022-08-10T23:39:26.892Z,23.10
2022-08-10T23:42:01.944Z,23.10
2022-08-10T23:51:55.658Z,23.10
2022-08-10T23:54:23.768Z,23.00
2022-08-10T23:56:54.228Z,23.00
2022-08-10T23:59:23.466Z,22.90
